createdAt,value
2023-09-04T00:02:05.149Z,3.80
2023-09-04T00:04:33.164Z,3.60
2023-09-04T00:07:01.108Z,3.67
2023-09-04T00:09:29.138Z,3.70
2023-09-04T00:11:57.184Z,4.13
2023-09-04T00:14:25.268Z,3.70
2023-09-04T00:16:53.259Z,3.50
2023-09-04T00:19:22.641Z,3.60
2023-09-04T00:21:50.629Z,3.67
2023-09-04T00:24:21.590Z,3.40
2023-09-04T00:26:49.639Z,3.53
2023-09-04T00:29:17.909Z,3.37
2023-09-04T00:31:45.970Z,3.80
2023-09-04T00:34:13.981Z,3.40
2023-09-04T00:36:43.357Z,3.70
2023-09-04T00:39:11.337Z,3.93
2023-09-04T00:41:39.473Z,3.60
2023-09-04T00:44:08.330Z,3.90
2023-09-04T00:46:37.248Z,3.60
2023-09-04T00:49:05.565Z,3.60
2023-09-04T00:51:33.667Z,3.53
2023-09-04T00:54:04.226Z,3.67
2023-09-04T00:56:32.937Z,3.80
2023-09-04T00:59:01.018Z,3.33
2023-09-04T01:01:30.344Z,3.53
2023-09-04T01:03:58.437Z,3.60
2023-09-04T01:06:27.004Z,3.83
2023-09-04T01:08:56.514Z,3.80
2023-09-04T01:11:34.635Z,3.90
2023-09-04T01:14:10.369Z,3.60
2023-09-04T01:16:40.321Z,3.60
2023-09-04T01:19:11.920Z,4.00
2023-09-04T01:21:41.937Z,3.67
2023-09-04T01:24:10.483Z,4.17
2023-09-04T01:26:40.578Z,3.67
2023-09-04T01:29:16.087Z,4.00
2023-09-04T01:31:50.147Z,3.93
2023-09-04T01:34:24.425Z,3.77
2023-09-04T01:36:55.031Z,4.00
2023-09-04T01:39:24.552Z,4.07
2023-09-04T01:41:53.003Z,3.73
2023-09-04T01:44:21.725Z,3.60
2023-09-04T01:46:49.896Z,3.63
2023-09-04T01:49:17.964Z,4.03
2023-09-04T01:51:46.133Z,3.97
2023-09-04T01:54:15.821Z,3.80
2023-09-04T01:56:43.951Z,3.73
2023-09-04T01:59:11.950Z,3.73
2023-09-04T02:01:39.958Z,3.70
2023-09-04T02:04:08.163Z,3.63
2023-09-04T02:06:36.178Z,3.87
2023-09-04T02:09:05.444Z,3.80
2023-09-04T02:11:34.850Z,4.07
2023-09-04T02:14:02.897Z,3.67
2023-09-04T02:16:31.156Z,4.13
2023-09-04T02:18:59.417Z,3.60
2023-09-04T02:21:27.436Z,4.00
2023-09-04T02:23:55.402Z,3.83
2023-09-04T02:26:23.417Z,3.73
2023-09-04T02:28:53.056Z,3.70
2023-09-04T02:31:22.025Z,3.83
2023-09-04T02:33:50.030Z,3.67
2023-09-04T02:36:17.972Z,4.10
2023-09-04T02:38:45.957Z,3.57
2023-09-04T02:41:14.045Z,3.40
2023-09-04T02:43:42.744Z,3.90
2023-09-04T02:46:12.235Z,3.60
2023-09-04T02:48:40.562Z,3.80
2023-09-04T02:51:08.811Z,4.00
2023-09-04T02:53:36.855Z,4.03
2023-09-04T02:56:04.903Z,3.70
2023-09-04T02:58:32.900Z,3.70
2023-09-04T03:01:00.908Z,3.83
2023-09-04T03:03:30.379Z,4.03
2023-09-04T03:05:58.418Z,3.60
2023-09-04T03:08:26.629Z,3.70
2023-09-04T03:10:54.785Z,3.63
2023-09-04T03:13:22.751Z,3.90
2023-09-04T03:15:51.256Z,3.63
2023-09-04T03:18:19.670Z,3.73
2023-09-04T03:20:50.182Z,3.93
2023-09-04T03:23:18.209Z,4.13
2023-09-04T03:25:46.257Z,4.07
2023-09-04T03:28:14.343Z,3.90
2023-09-04T03:30:42.668Z,3.93
2023-09-04T03:33:10.910Z,4.13
2023-09-04T03:35:38.981Z,4.30
2023-09-04T03:38:08.647Z,4.27
2023-09-04T03:40:37.318Z,3.60
2023-09-04T03:43:05.536Z,3.80
2023-09-04T03:45:34.947Z,4.20
2023-09-04T03:48:03.885Z,3.70
2023-09-04T03:50:34.211Z,4.10
2023-09-04T03:53:04.320Z,4.20
2023-09-04T03:55:33.730Z,4.33
2023-09-04T03:58:01.900Z,4.53
2023-09-04T04:00:31.222Z,4.20
2023-09-04T04:03:00.833Z,4.37
2023-09-04T04:05:30.678Z,4.40
2023-09-04T04:07:58.666Z,4.20
2023-09-04T04:10:26.661Z,4.33
2023-09-04T04:12:56.809Z,4.23
2023-09-04T04:15:25.032Z,4.33
2023-09-04T04:17:53.374Z,4.87
2023-09-04T04:20:21.640Z,4.80
2023-09-04T04:22:49.792Z,4.03
2023-09-04T04:25:17.858Z,4.37
2023-09-04T04:27:46.902Z,4.33
2023-09-04T04:30:16.940Z,4.30
2023-09-04T04:32:45.282Z,4.30
2023-09-04T04:35:13.311Z,4.63
2023-09-04T04:37:42.091Z,4.00
2023-09-04T04:40:11.028Z,4.17
2023-09-04T04:42:42.343Z,4.00
2023-09-04T04:45:12.309Z,4.40
2023-09-04T04:47:42.062Z,3.80
2023-09-04T04:50:11.734Z,4.13
2023-09-04T04:52:39.757Z,4.20
2023-09-04T04:55:10.233Z,4.53
2023-09-04T04:57:38.329Z,4.20
2023-09-04T05:00:11.832Z,4.30
2023-09-04T05:02:41.801Z,3.90
2023-09-04T05:05:11.333Z,4.13
2023-09-04T05:07:42.657Z,3.50
2023-09-04T05:10:13.563Z,4.00
2023-09-04T05:12:43.266Z,4.50
2023-09-04T05:15:11.738Z,4.40
2023-09-04T05:17:41.147Z,4.23
2023-09-04T05:20:11.035Z,4.70
2023-09-04T05:22:39.002Z,3.97
2023-09-04T05:25:07.906Z,3.97
2023-09-04T05:27:35.835Z,3.90
2023-09-04T05:30:04.279Z,3.90
2023-09-04T05:32:32.234Z,4.27
2023-09-04T05:35:01.746Z,4.20
2023-09-04T05:37:29.928Z,4.20
2023-09-04T05:39:58.026Z,4.20
2023-09-04T05:42:26.075Z,4.43
2023-09-04T05:44:54.167Z,4.00
2023-09-04T05:47:22.469Z,4.37
2023-09-04T05:49:50.448Z,3.80
2023-09-04T05:52:19.735Z,4.23
2023-09-04T05:54:47.827Z,3.87
2023-09-04T05:57:15.817Z,4.23
2023-09-04T05:59:47.800Z,4.10
2023-09-04T06:02:15.874Z,4.20
2023-09-04T06:04:43.879Z,3.90
2023-09-04T06:07:12.334Z,4.27
2023-09-04T06:09:43.684Z,4.10
2023-09-04T06:12:13.949Z,4.20
2023-09-04T06:14:42.177Z,4.23
2023-09-04T06:17:10.151Z,4.20
2023-09-04T06:19:38.129Z,4.00
2023-09-04T06:22:06.298Z,4.03
2023-09-04T06:24:34.361Z,3.60
2023-09-04T06:27:03.757Z,3.97
2023-09-04T06:29:31.777Z,3.93
2023-09-04T06:31:59.812Z,4.20
2023-09-04T06:34:27.766Z,3.60
2023-09-04T06:36:55.772Z,4.13
2023-09-04T06:39:23.812Z,4.00
2023-09-04T06:41:51.821Z,3.60
2023-09-04T06:44:23.038Z,3.63
2023-09-04T06:46:51.044Z,3.50
2023-09-04T06:49:19.081Z,3.47
2023-09-04T06:51:47.136Z,4.10
2023-09-04T06:54:15.598Z,3.57
2023-09-04T06:56:43.572Z,3.70
2023-09-04T06:59:11.611Z,3.30
2023-09-04T07:01:43.573Z,3.37
2023-09-04T07:04:11.745Z,3.80
2023-09-04T07:06:39.720Z,3.53
2023-09-04T07:09:07.829Z,3.70
2023-09-04T07:11:35.878Z,3.37
2023-09-04T07:14:04.219Z,3.40
2023-09-04T07:16:44.290Z,3.80
2023-09-04T07:19:19.758Z,3.30
2023-09-04T07:21:47.867Z,3.20
2023-09-04T07:24:15.945Z,3.40
2023-09-04T07:26:44.474Z,3.20
2023-09-04T07:29:12.432Z,3.73
2023-09-04T07:31:40.454Z,3.40
2023-09-04T07:34:08.447Z,3.47
2023-09-04T07:36:37.932Z,3.27
2023-09-04T07:39:06.241Z,3.20
2023-09-04T07:41:34.169Z,3.37
2023-09-04T07:44:02.192Z,3.30
2023-09-04T07:46:30.189Z,3.20
2023-09-04T07:48:58.198Z,3.13
2023-09-04T07:51:34.764Z,3.07
2023-09-04T07:54:05.500Z,3.30
2023-09-04T07:56:42.011Z,3.13
2023-09-04T07:59:11.385Z,3.13
2023-09-04T08:01:40.040Z,3.40
2023-09-04T08:04:08.260Z,3.17
2023-09-04T08:06:36.444Z,3.20
2023-09-04T08:09:06.051Z,3.47
2023-09-04T08:11:34.138Z,3.20
2023-09-04T08:14:02.206Z,2.90
2023-09-04T08:16:30.225Z,3.20
2023-09-04T08:18:58.228Z,2.77
2023-09-04T08:21:26.231Z,3.30
2023-09-04T08:23:56.658Z,3.10
2023-09-04T08:26:26.067Z,3.00
2023-09-04T08:28:54.155Z,2.97
2023-09-04T08:31:22.317Z,3.00
2023-09-04T08:33:50.344Z,2.80
2023-09-04T08:36:18.429Z,3.10
2023-09-04T08:38:46.886Z,2.93
2023-09-04T08:41:16.924Z,3.10
2023-09-04T08:43:49.734Z,2.73
2023-09-04T08:46:18.537Z,2.90
2023-09-04T08:48:47.439Z,2.90
2023-09-04T08:51:18.085Z,2.87
2023-09-04T08:53:46.789Z,2.87
2023-09-04T08:56:16.320Z,3.00
2023-09-04T08:58:44.687Z,2.63
2023-09-04T09:01:16.192Z,2.87
2023-09-04T09:03:45.091Z,2.97
2023-09-04T09:06:13.618Z,2.80
2023-09-04T09:08:45.261Z,2.50
2023-09-04T09:11:15.841Z,3.00
2023-09-04T09:13:45.176Z,3.00
2023-09-04T09:16:20.033Z,2.73
2023-09-04T09:18:49.726Z,2.97
2023-09-04T09:21:26.448Z,3.10
2023-09-04T09:24:17.678Z,2.80
2023-09-04T09:26:47.750Z,2.83
2023-09-04T09:29:16.770Z,2.70
2023-09-04T09:31:47.941Z,2.70
2023-09-04T09:34:17.727Z,2.60
2023-09-04T09:36:46.116Z,2.83
2023-09-04T09:39:14.290Z,2.97
2023-09-04T09:41:42.551Z,2.47
2023-09-04T09:44:10.899Z,2.73
2023-09-04T09:46:39.439Z,2.83
2023-09-04T09:49:09.660Z,2.87
2023-09-04T09:51:39.201Z,2.70
2023-09-04T09:54:10.059Z,2.83
2023-09-04T09:56:39.920Z,2.80
2023-09-04T09:59:09.291Z,2.60
2023-09-04T10:01:39.092Z,2.90
2023-09-04T10:04:09.896Z,2.50
2023-09-04T10:06:39.722Z,3.00
2023-09-04T10:09:10.699Z,2.60
2023-09-04T10:11:42.687Z,2.63
2023-09-04T10:14:14.385Z,2.80
2023-09-04T10:16:46.340Z,2.60
2023-09-04T10:19:19.316Z,2.57
2023-09-04T10:21:53.925Z,2.73
2023-09-04T10:24:32.266Z,2.63
2023-09-04T10:27:06.662Z,2.90
2023-09-04T10:29:43.784Z,2.60
2023-09-04T10:32:12.621Z,2.80
2023-09-04T10:34:42.959Z,2.53
2023-09-04T10:37:14.637Z,2.50
2023-09-04T10:39:43.923Z,2.70
2023-09-04T10:42:14.172Z,2.70
2023-09-04T10:44:50.798Z,2.67
2023-09-04T10:47:19.614Z,2.50
2023-09-04T10:49:50.102Z,2.20
2023-09-04T10:52:18.171Z,2.63
2023-09-04T10:54:46.631Z,2.77
2023-09-04T10:57:17.070Z,2.60
2023-09-04T11:00:01.894Z,2.57
2023-09-04T11:02:32.485Z,2.40
2023-09-04T11:05:03.096Z,2.57
2023-09-04T11:07:32.827Z,2.80
2023-09-04T11:10:06.990Z,2.70
2023-09-04T11:12:36.218Z,2.50
2023-09-04T11:15:12.537Z,2.77
2023-09-04T11:17:42.547Z,2.47
2023-09-04T11:20:16.014Z,2.65
2023-09-04T11:22:48.644Z,2.40
2023-09-04T11:25:17.235Z,2.40
2023-09-04T11:27:45.835Z,2.72
2023-09-04T11:30:14.454Z,2.53
2023-09-04T11:32:42.667Z,2.63
2023-09-04T11:35:14.814Z,2.63
2023-09-04T11:37:43.529Z,2.35
2023-09-04T11:40:12.694Z,2.70
2023-09-04T11:42:41.089Z,2.60
2023-09-04T11:45:10.187Z,2.53
2023-09-04T11:47:41.226Z,2.45
2023-09-04T11:50:18.025Z,2.42
2023-09-04T11:52:46.129Z,2.70
2023-09-04T11:55:14.320Z,2.45
2023-09-04T11:57:43.560Z,2.90
2023-09-04T12:00:13.337Z,2.38
2023-09-04T12:02:43.679Z,2.42
2023-09-04T12:05:12.165Z,2.60
2023-09-04T12:07:42.227Z,2.60
2023-09-04T12:10:12.111Z,2.70
2023-09-04T12:12:40.352Z,2.53
2023-09-04T12:15:08.874Z,2.28
2023-09-04T12:17:37.070Z,2.40
2023-09-04T12:20:07.787Z,2.40
2023-09-04T12:22:36.162Z,2.33
2023-09-04T12:25:10.035Z,2.20
2023-09-04T12:27:40.113Z,2.30
2023-09-04T12:30:10.863Z,2.50
2023-09-04T12:32:39.739Z,2.33
2023-09-04T12:35:09.209Z,2.47
2023-09-04T12:37:38.402Z,2.50
2023-09-04T12:40:10.016Z,2.40
2023-09-04T12:42:39.403Z,2.33
2023-09-04T12:45:10.081Z,2.20
2023-09-04T12:47:38.499Z,2.28
2023-09-04T12:50:07.162Z,2.58
2023-09-04T12:52:35.967Z,2.47
2023-09-04T12:55:04.287Z,2.28
2023-09-04T12:57:34.680Z,2.60
2023-09-04T13:00:07.226Z,2.40
2023-09-04T13:02:36.060Z,2.35
2023-09-04T13:05:04.844Z,2.17
2023-09-04T13:07:34.127Z,2.50
2023-09-04T13:10:02.403Z,2.45
2023-09-04T13:12:30.415Z,2.30
2023-09-04T13:14:59.821Z,2.83
2023-09-04T13:17:28.133Z,2.33
2023-09-04T13:19:56.364Z,2.60
2023-09-04T13:22:24.874Z,2.30
2023-09-04T13:24:53.888Z,2.40
2023-09-04T13:27:22.635Z,2.10
2023-09-04T13:29:50.691Z,2.60
2023-09-04T13:32:20.051Z,2.20
2023-09-04T13:34:48.113Z,2.72
2023-09-04T13:37:16.168Z,2.50
2023-09-04T13:39:44.764Z,2.35
2023-09-04T13:42:14.187Z,2.40
2023-09-04T13:44:42.188Z,2.50
2023-09-04T13:47:10.205Z,2.40
2023-09-04T13:49:39.698Z,2.40
2023-09-04T13:52:10.396Z,2.30
2023-09-04T13:54:38.354Z,2.70
2023-09-04T13:57:06.400Z,2.28
2023-09-04T13:59:34.465Z,2.45
2023-09-04T14:02:03.590Z,2.40
2023-09-04T14:04:31.739Z,2.60
2023-09-04T14:07:01.040Z,2.55
2023-09-04T14:09:29.621Z,2.35
2023-09-04T14:11:57.608Z,2.67
2023-09-04T14:14:27.448Z,2.60
2023-09-04T14:16:55.636Z,2.80
2023-09-04T14:19:24.192Z,2.58
2023-09-04T14:21:54.086Z,2.60
2023-09-04T14:24:23.507Z,2.50
2023-09-04T14:26:51.881Z,2.67
2023-09-04T14:29:19.924Z,2.50
2023-09-04T14:31:48.509Z,2.70
2023-09-04T14:34:36.428Z,2.22
2023-09-04T14:37:23.121Z,2.50
2023-09-04T14:40:14.122Z,2.53
2023-09-04T14:43:02.924Z,2.92
2023-09-04T14:46:03.836Z,2.88
2023-09-04T14:48:56.948Z,2.67
2023-09-04T14:51:45.433Z,2.25
2023-09-04T14:54:33.891Z,2.42
2023-09-04T14:57:23.726Z,2.75
2023-09-04T15:00:12.701Z,2.50
2023-09-04T15:03:03.629Z,2.40
2023-09-04T15:06:00.379Z,2.17
2023-09-04T15:08:49.693Z,2.67
2023-09-04T15:11:38.066Z,2.78
2023-09-04T15:14:27.772Z,2.92
2023-09-04T15:17:16.055Z,2.67
2023-09-04T15:20:04.552Z,2.33
2023-09-04T15:22:52.859Z,2.72
2023-09-04T15:25:41.223Z,2.63
2023-09-04T15:28:29.811Z,2.47
2023-09-04T15:31:19.553Z,2.42
2023-09-04T15:34:07.989Z,2.17
2023-09-04T15:36:56.376Z,2.45
2023-09-04T15:39:44.715Z,2.17
2023-09-04T15:42:33.065Z,2.53
2023-09-04T15:45:21.635Z,2.50
2023-09-04T15:48:12.174Z,3.63
2023-09-04T15:51:00.574Z,2.97
2023-09-04T15:53:48.908Z,2.33
2023-09-04T15:56:37.555Z,2.58
2023-09-04T15:59:25.918Z,2.60
2023-09-04T16:02:14.480Z,2.20
2023-09-04T16:05:07.001Z,2.60
2023-09-04T16:08:28.957Z,2.20
2023-09-04T16:11:29.124Z,2.47
2023-09-04T16:14:53.414Z,2.75
2023-09-04T16:17:50.008Z,2.72
2023-09-04T16:20:49.357Z,2.63
2023-09-04T16:23:46.837Z,2.40
2023-09-04T16:26:47.993Z,2.77
2023-09-04T16:29:44.673Z,2.22
2023-09-04T16:32:48.595Z,2.13
2023-09-04T16:36:03.798Z,2.43
2023-09-04T16:39:03.116Z,2.30
2023-09-04T16:42:11.266Z,2.35
2023-09-04T16:45:04.307Z,2.57
2023-09-04T16:59:59.018Z,2.30
2023-09-04T17:02:54.687Z,2.30
2023-09-04T17:10:26.661Z,2.20
2023-09-04T17:13:21.150Z,2.70
2023-09-04T17:17:32.649Z,2.30
2023-09-04T17:21:23.315Z,2.57
2023-09-04T17:24:49.575Z,2.23
2023-09-04T17:30:52.782Z,2.60
2023-09-04T17:33:41.173Z,2.70
2023-09-04T17:36:29.556Z,2.88
2023-09-04T17:39:17.883Z,2.70
2023-09-04T17:42:06.560Z,2.90
2023-09-04T17:44:54.936Z,2.93
2023-09-04T17:47:44.753Z,3.00
2023-09-04T17:50:33.193Z,2.90
2023-09-04T17:53:21.685Z,3.17
2023-09-04T17:56:10.073Z,2.80
2023-09-04T17:58:58.490Z,2.83
2023-09-04T18:01:46.968Z,2.83
2023-09-04T18:04:36.790Z,3.00
2023-09-04T18:07:25.180Z,2.93
2023-09-04T18:10:14.432Z,2.67
2023-09-04T18:13:03.062Z,2.87
2023-09-04T18:15:51.447Z,2.70
2023-09-04T18:18:41.171Z,2.90
2023-09-04T18:21:30.928Z,2.57
2023-09-04T18:24:19.460Z,2.40
2023-09-04T18:27:07.875Z,2.10
2023-09-04T18:29:57.083Z,2.47
2023-09-04T18:32:45.454Z,2.40
2023-09-04T18:35:33.877Z,2.40
2023-09-04T18:38:23.812Z,2.60
2023-09-04T18:41:13.585Z,2.50
2023-09-04T18:44:02.194Z,2.20
2023-09-04T18:46:50.537Z,2.40
2023-09-04T18:49:38.951Z,2.50
2023-09-04T18:52:27.296Z,2.40
2023-09-04T18:55:17.118Z,2.47
2023-09-04T18:58:05.641Z,2.20
2023-09-04T19:00:57.382Z,2.40
2023-09-04T19:03:25.603Z,2.50
2023-09-04T19:05:54.302Z,2.87
2023-09-04T19:08:24.507Z,2.77
2023-09-04T19:10:54.908Z,2.70
2023-09-04T19:13:23.181Z,2.40
2023-09-04T19:15:51.332Z,2.80
2023-09-04T19:18:19.565Z,2.90
2023-09-04T19:20:49.153Z,2.50
2023-09-04T19:23:17.892Z,2.37
2023-09-04T19:25:46.173Z,2.73
2023-09-04T19:28:15.694Z,2.83
2023-09-04T19:30:43.873Z,2.87
2023-09-04T19:33:11.882Z,2.60
2023-09-04T19:35:40.000Z,2.90
2023-09-04T19:38:08.524Z,2.60
2023-09-04T19:40:36.553Z,2.93
2023-09-04T19:43:04.843Z,2.83
2023-09-04T19:45:34.165Z,2.90
2023-09-04T19:48:02.401Z,2.70
2023-09-04T19:50:30.521Z,2.70
2023-09-04T19:52:58.750Z,3.07
2023-09-04T19:55:26.914Z,2.60
2023-09-04T19:57:54.949Z,2.60
2023-09-04T20:00:24.083Z,2.63
2023-09-04T20:02:53.977Z,3.03
2023-09-04T20:05:22.213Z,2.73
2023-09-04T20:07:50.259Z,2.90
2023-09-04T20:10:18.348Z,2.83
2023-09-04T20:12:46.367Z,2.63
2023-09-04T20:15:14.388Z,2.53
2023-09-04T20:17:42.627Z,2.57
2023-09-04T20:20:13.261Z,2.70
2023-09-04T20:22:41.419Z,3.03
2023-09-04T20:25:10.255Z,2.70
2023-09-04T20:27:38.326Z,2.73
2023-09-04T20:30:07.340Z,2.90
2023-09-04T20:32:35.613Z,3.10
2023-09-04T20:35:03.918Z,2.70
2023-09-04T20:37:36.284Z,2.67
2023-09-04T20:40:04.608Z,3.17
2023-09-04T20:42:32.700Z,2.60
2023-09-04T20:45:00.890Z,2.70
2023-09-04T20:47:29.435Z,3.13
2023-09-04T20:49:57.472Z,3.00
2023-09-04T20:52:25.487Z,3.07
2023-09-04T20:54:57.012Z,2.97
2023-09-04T20:57:25.063Z,3.37
2023-09-04T20:59:54.880Z,3.17
2023-09-04T21:02:23.065Z,2.97
2023-09-04T21:04:51.273Z,3.40
2023-09-04T21:07:18.191Z,3.00
2023-09-04T21:09:45.107Z,3.47
2023-09-04T21:12:31.938Z,3.10
2023-09-04T21:15:17.469Z,2.93
2023-09-04T21:18:03.130Z,3.13
2023-09-04T21:20:48.592Z,3.20
2023-09-04T21:23:33.949Z,3.13
2023-09-04T21:26:19.373Z,3.50
2023-09-04T21:29:07.331Z,3.40
2023-09-04T21:31:52.786Z,3.30
2023-09-04T21:34:38.339Z,3.00
2023-09-04T21:37:23.780Z,3.00
2023-09-04T21:40:09.204Z,3.57
2023-09-04T21:43:04.652Z,3.10
2023-09-04T21:45:51.513Z,3.50
2023-09-04T21:48:37.344Z,3.50
2023-09-04T21:51:23.341Z,3.30
2023-09-04T21:54:09.869Z,3.17
2023-09-04T21:56:55.275Z,3.87
2023-09-04T21:59:40.776Z,3.17
2023-09-04T22:02:27.638Z,3.60
2023-09-04T22:05:13.229Z,3.37
2023-09-04T22:07:58.853Z,3.40
2023-09-04T22:10:44.138Z,3.43
2023-09-04T22:13:29.626Z,3.00
2023-09-04T22:16:14.944Z,3.50
2023-09-04T22:19:01.786Z,3.20
2023-09-04T22:21:47.791Z,2.90
2023-09-04T22:24:33.263Z,3.43
2023-09-04T22:27:19.432Z,3.57
2023-09-04T22:30:04.895Z,3.03
2023-09-04T22:32:50.223Z,3.07
2023-09-04T22:35:37.451Z,3.33
2023-09-04T22:38:27.717Z,3.40
2023-09-04T22:41:13.695Z,3.53
2023-09-04T22:43:59.184Z,3.40
2023-09-04T22:46:44.780Z,3.33
2023-09-04T22:49:30.194Z,3.53
2023-09-04T22:52:17.023Z,3.27
2023-09-04T22:55:02.398Z,3.47
2023-09-04T22:57:47.891Z,3.50
2023-09-04T23:00:33.840Z,3.27
2023-09-04T23:03:19.375Z,3.50
2023-09-04T23:06:04.803Z,3.83
2023-09-04T23:08:51.474Z,3.20
2023-09-04T23:11:36.844Z,3.57
2023-09-04T23:14:22.442Z,3.23
2023-09-04T23:17:08.198Z,3.30
2023-09-04T23:19:53.681Z,3.30
2023-09-04T23:22:22.270Z,3.33
2023-09-04T23:24:52.813Z,3.40
2023-09-04T23:27:20.989Z,3.17
2023-09-04T23:29:50.968Z,3.17
2023-09-04T23:32:26.285Z,3.37
2023-09-04T23:35:01.006Z,3.30
2023-09-04T23:37:32.803Z,3.37
2023-09-04T23:40:19.801Z,3.43
2023-09-04T23:43:09.152Z,3.07
2023-09-04T23:45:38.245Z,3.47
2023-09-04T23:48:07.243Z,3.70
2023-09-04T23:50:35.613Z,3.27
2023-09-04T23:53:03.644Z,3.43
2023-09-04T23:55:34.833Z,3.30
2023-09-04T23:58:03.329Z,3.33
